Weather observations for the past three days for
Putnam County Regional Airport
Imperial (Metric)
Date Time (edt) Wind (mph) Vis. (mi.) Weather Sky Cond. Temperature (ºF) Relative Humidity Wind Chill (°F) Heat Index (°F) Pressure Precipitation (in)
Air Dwpt 6 hour altimeter (in) sea level (mb) 1 hr 3 hr 6 hr
Max. Min.
05 02:35 S 3 10.00 Fair CLR 75.2 75.2 100% 73 29.94 0.0
05 02:15 Calm 10.00 Fair CLR 75.2 75.2 100% 73 29.95 0.0
05 01:55 Calm 10.00 Fair CLR 77 75.2 94% 78 29.96 0.0
05 01:35 S 3 10.00 Fair CLR 77 75.2 94% 78 29.96 0.0
05 01:15 S 3 10.00 Fair CLR 77 75.2 94% 78 29.96 0.0
05 00:55 S 5 10.00 Fair CLR 75.2 75.2 100% 73 29.96 0.0
05 00:35 Calm 10.00 Fair CLR 77 75.2 94% 78 29.97 0.0
05 00:15 SE 5 10.00 Fair CLR 75.2 75.2 100% 73 29.97 0.0
04 23:55 SW 3 10.00 Fair CLR 77 75.2 94% 78 29.97 0.0
04 23:35 Calm 10.00 Fair CLR 78.8 77 94% 83 29.97 0.0
04 23:15 Calm 10.00 Fair CLR 78.8 77 94% 83 29.97 0.0
04 22:55 Calm 10.00 Fair CLR 77 77 100% 78 29.97 0.0
04 22:35 Calm 10.00 Fair CLR 80.6 77 89% 87 29.96 0.0
04 22:15 Calm 10.00 Fair CLR 80.6 77 89% 87 29.96 0.0
04 21:55 Calm 10.00 Fair CLR 80.6 77 89% 87 29.96 0.0
04 21:35 Calm 10.00 Fair CLR 80.6 77 89% 87 29.96 0.0
04 21:15 Calm 10.00 Fair CLR 80.6 77 89% 87 29.96 0.0
04 20:55 Calm 10.00 Fair CLR 80.6 77 89% 87 29.96 0.0
04 20:35 Calm 10.00 Fair CLR 84.2 77 79% 94 29.94 0.0
04 20:15 Calm 10.00 Fair CLR 87.8 75.2 66% 98 29.94 0.0
04 19:55 Calm 10.00 Fair CLR 87.8 77 70% 100 29.94 0.0
04 19:35 Calm 10.00 Fair CLR 89.6 77 67% 103 29.94 0.0
04 19:15 SW 3 10.00 Fair CLR 89.6 75.2 63% 100 29.94 0.0
04 18:55 SW 3 10.00 Fair CLR 91.4 75.2 59% 103 29.94 0.0
04 18:35 SW 5 10.00 Fair CLR 91.4 75.2 59% 103 29.94 0.0
04 18:15 SW 7 10.00 Fair CLR 93.2 75.2 56% 105 29.94 0.0
04 17:55 SW 7 10.00 Fair CLR 93.2 75.2 56% 105 29.94 0.0
04 17:35 SW 7 10.00 Fair CLR 93.2 73.4 53% 103 29.94 0.0
04 17:15 SW 8 10.00 Fair CLR 93.2 73.4 53% 103 29.95 0.0
04 16:55 W 6 10.00 Fair CLR 93.2 73.4 53% 103 29.96 0.0
04 16:35 W 5 10.00 Fair CLR 93.2 73.4 53% 103 29.96 0.0
04 16:15 W 10 10.00 Fair CLR 93.2 73.4 53% 103 29.97 0.0
04 15:55 W 5 10.00 Fair CLR 93.2 73.4 53% 103 29.98 0.0
04 15:35 W 5 10.00 Fair CLR 93.2 73.4 53% 103 29.99 0.0
04 15:15 W 9 10.00 Fair CLR 93.2 75.2 56% 105 30 0.0
04 14:55 NW 9 10.00 Fair CLR 93.2 73.4 53% 103 30.01 0.0
04 14:35 SW 8 10.00 Fair CLR 93.2 73.4 53% 103 30.01 0.0
04 14:15 SW 7 10.00 Fair CLR 93.2 75.2 56% 105 30.02 0.0
04 13:55 NW 10 10.00 Fair CLR 93.2 73.4 53% 103 30.02 0.0
04 13:35 W 7 10.00 Fair CLR 93.2 73.4 53% 103 30.03 0.0
04 13:15 W 9 10.00 Fair CLR 91.4 73.4 56% 100 30.04 0.0
04 12:55 W 8 10.00 Fair CLR 91.4 73.4 56% 100 30.04 0.0
04 12:35 W 12 10.00 Fair CLR 91.4 73.4 56% 100 30.04 0.0
04 12:15 W 7 10.00 Fair CLR 91.4 73.4 56% 100 30.04 0.0
04 11:55 W 9 10.00 Fair CLR 89.6 73.4 59% 98 30.04 0.0
04 11:35 SW 6 10.00 Fair CLR 89.6 73.4 59% 98 30.04 0.0
04 11:15 SW 6 10.00 Fair CLR 87.8 73.4 62% 96 30.03 0.0
04 10:55 W 7 10.00 Fair CLR 87.8 75.2 66% 98 30.03 0.0
04 10:35 SW 6 10.00 Fair CLR 86 73.4 66% 93 30.03 0.0
04 10:15 SW 7 10.00 Fair CLR 86 73.4 66% 93 30.02 0.0
04 09:55 SW 8 10.00 Fair CLR 82.4 73.4 74% 88 30.02 0.0
04 09:35 SW 7 10.00 Fair CLR 82.4 73.4 74% 88 30.03 0.0
04 09:15 SW 6 10.00 Fair CLR 80.6 73.4 79% 85 30.03 0.0
04 08:55 SW 3 10.00 Fair CLR 78.8 73.4 84% 82 30.03 0.0
04 08:35 SW 3 10.00 Fair CLR 78.8 71.6 79% 82 30.03 0.0
04 08:15 Calm 10.00 Fair CLR 77 71.6 83% 78 30.02 0.0
04 07:55 SW 6 10.00 Fair CLR 75.2 71.6 89% 75 30 0.0
04 07:35 SW 6 10.00 Fair CLR 75.2 71.6 89% 75 30 0.0
04 07:15 SW 7 10.00 Fair CLR 75.2 71.6 89% 75 30 0.0
04 06:55 SW 7 10.00 Fair CLR 75.2 71.6 89% 75 29.99 0.0
04 06:35 SW 6 10.00 Fair CLR 75.2 71.6 89% 75 30 0.0
04 06:15 SW 6 10.00 Fair CLR 75.2 71.6 89% 75 30 0.0
04 05:55 SW 5 10.00 Fair CLR 73.4 71.6 94% 30 0.0
04 05:35 SW 5 10.00 Fair CLR 75.2 73.4 94% 74 29.99 0.0
04 05:15 SW 5 10.00 Fair CLR 75.2 71.6 89% 75 29.99 0.0
04 04:55 SW 6 10.00 Fair CLR 73.4 71.6 94% 29.99 0.0
04 04:35 S 6 10.00 Fair CLR 75.2 73.4 94% 74 29.99 0.0
04 04:15 S 5 10.00 Fair CLR 75.2 73.4 94% 74 29.99 0.0
04 03:55 S 6 10.00 Partly Cloudy SCT100 75.2 73.4 94% 74 29.99 0.0
04 03:35 S 5 10.00 Partly Cloudy SCT100 75.2 73.4 94% 74 29.99 0.0
04 03:15 S 3 10.00 Partly Cloudy SCT100 75.2 73.4 94% 74 30 0.0
04 02:55 S 3 10.00 Partly Cloudy SCT100 75.2 75.2 100% 73 30 0.0
04 02:35 S 3 10.00 Fair CLR 75.2 73.4 94% 74 30 0.0
04 02:15 S 3 10.00 Partly Cloudy SCT070 77 73.4 89% 78 30 0.0
04 01:55 S 3 10.00 Partly Cloudy SCT070 SCT080 77 73.4 89% 78 30.01 0.0
04 01:35 Calm 10.00 Fair CLR 78.8 73.4 84% 82 30.01 0.0
04 01:15 Calm 10.00 Fair CLR 78.8 75.2 89% 82 30 0.0
04 00:55 Calm 10.00 Fair CLR 78.8 75.2 89% 82 30 0.0
04 00:35 Calm 10.00 Fair CLR 78.8 75.2 89% 82 30 0.0
04 00:15 S 5 10.00 Partly Cloudy SCT070 78.8 75.2 89% 82 30 0.0
03 23:55 S 3 10.00 Partly Cloudy SCT070 SCT080 78.8 75.2 89% 82 30 0.0
03 23:35 Calm 10.00 Partly Cloudy SCT070 SCT080 78.8 75.2 89% 82 29.99 0.0
03 23:15 SE 3 10.00 Partly Cloudy SCT080 78.8 75.2 89% 82 30 0.0
03 22:55 E 5 10.00 Mostly Cloudy SCT070 BKN080 80.6 75.2 84% 86 30 0.0
03 22:35 Calm 10.00 Partly Cloudy SCT070 80.6 75.2 84% 86 30 0.0
03 22:15 E 3 10.00 Fair CLR 80.6 75.2 84% 86 30 0.0
03 21:55 E 3 10.00 Fair CLR 80.6 77 89% 87 30 0.0
03 21:35 SE 3 10.00 Fair CLR 80.6 77 89% 87 29.99 0.0
03 21:15 E 5 10.00 Fair CLR 82.4 77 84% 91 29.99 0.0
03 20:55 SE 3 10.00 Fair CLR 80.6 77 89% 87 29.98 0.0
03 20:35 Calm 10.00 Fair CLR 82.4 77 84% 91 29.98 0.0
03 20:15 Calm 10.00 Fair CLR 87.8 75.2 66% 98 29.97 0.0
03 19:55 Calm 10.00 Fair CLR 87.8 77 70% 100 29.97 0.0
03 19:35 Calm 10.00 Fair CLR 89.6 77 67% 103 29.97 0.0
03 19:15 Calm 10.00 Fair CLR 91.4 73.4 56% 100 29.97 0.0
03 18:55 Calm 10.00 Fair CLR 91.4 75.2 59% 103 29.97 0.0
03 18:35 SW 3 10.00 Fair CLR 91.4 73.4 56% 100 29.97 0.0
03 18:15 SW 5 10.00 Partly Cloudy SCT050 91.4 73.4 56% 100 29.97 0.0
03 17:55 SW 7 10.00 Mostly Cloudy BKN050 BKN060 93.2 73.4 53% 103 29.97 0.0
03 17:35 SW 6 10.00 Partly Cloudy SCT050 93.2 75.2 56% 105 29.97 0.0
03 17:15 SW 6 10.00 Partly Cloudy SCT050 SCT065 91.4 73.4 56% 100 29.97 0.0
03 16:55 S 8 10.00 Partly Cloudy SCT050 SCT095 SCT120 93.2 73.4 53% 103 29.98 0.0
03 16:35 SW 6 10.00 Mostly Cloudy BKN050 BKN060 93.2 73.4 53% 103 29.98 0.0
03 16:15 SW 9 10.00 Mostly Cloudy SCT050 BKN060 BKN075 93.2 73.4 53% 103 29.99 0.0
03 15:55 SW 5 10.00 Mostly Cloudy BKN050 BKN060 93.2 73.4 53% 103 30 0.0
03 15:35 SW 7 10.00 Partly Cloudy SCT050 91.4 73.4 56% 100 30 0.0
03 15:15 SW 6 10.00 Fair CLR 93.2 73.4 53% 103 30.01 0.0
03 14:55 W 9 10.00 Fair CLR 93.2 73.4 53% 103 30.01 0.0
03 14:35 W 8 10.00 Fair CLR 93.2 75.2 56% 105 30.01 0.0
03 14:15 W 8 10.00 Fair CLR 91.4 73.4 56% 100 30.02 0.0
03 13:55 SW 8 10.00 Fair CLR 91.4 73.4 56% 100 30.02 0.0
03 13:35 SW 10 10.00 Fair CLR 91.4 73.4 56% 100 30.02 0.0
03 13:15 SW 10 10.00 Fair CLR 91.4 73.4 56% 100 30.03 0.0
03 12:55 W 8 10.00 Fair CLR 91.4 73.4 56% 100 30.03 0.0
03 12:35 SW 8 10.00 Fair CLR 89.6 73.4 59% 98 30.04 0.0
03 12:15 SW 8 10.00 Fair CLR 89.6 75.2 63% 100 30.04 0.0
03 11:55 SW 7 10.00 Fair CLR 89.6 73.4 59% 98 30.04 0.0
03 11:35 SW 8 10.00 Fair CLR 87.8 73.4 62% 96 30.04 0.0
03 11:15 SW 8 10.00 Fair CLR 86 73.4 66% 93 30.04 0.0
03 10:55 SW 8 10.00 Fair CLR 86 73.4 66% 93 30.04 0.0
03 10:35 SW 9 10.00 Fair CLR 84.2 73.4 70% 91 30.04 0.0
03 10:15 SW 9 10.00 Fair CLR 84.2 71.6 66% 90 30.04 0.0
03 09:55 SW 8 10.00 Fair CLR 82.4 71.6 70% 87 30.04 0.0
03 09:35 SW 7 10.00 Fair CLR 82.4 71.6 70% 87 30.04 0.0
03 09:15 SW 7 10.00 Fair CLR 80.6 71.6 74% 85 30.05 0.0
03 08:55 S 7 10.00 Fair CLR 78.8 73.4 84% 82 30.05 0.0
03 08:35 S 6 10.00 Fair CLR 77 71.6 83% 78 30.05 0.0
03 08:15 S 5 10.00 Fair CLR 73.4 71.6 94% 30.05 0.0
03 07:55 S 6 10.00 Fair CLR 73.4 71.6 94% 30.05 0.0
03 07:35 S 3 10.00 Fair CLR 73.4 71.6 94% 30.05 0.0
03 07:15 S 3 10.00 Fair CLR 73.4 69.8 89% 30.04 0.0
03 06:55 S 3 10.00 Fair CLR 73.4 71.6 94% 30.03 0.0
03 06:35 S 3 10.00 Fair CLR 73.4 69.8 89% 30.03 0.0
03 06:15 SW 3 10.00 Fair CLR 75.2 69.8 83% 75 30.03 0.0
03 05:55 SW 5 10.00 Fair CLR 73.4 69.8 89% 30.03 0.0
03 05:35 SW 5 10.00 Fair CLR 77 69.8 79% 79 30.03 0.0
03 05:15 SW 6 10.00 Fair CLR 77 69.8 79% 79 30.03 0.0
03 04:55 SW 5 10.00 Fair CLR 77 69.8 79% 79 30.03 0.0
03 04:35 SW 5 10.00 Fair CLR 77 69.8 79% 79 30.03 0.0
03 04:15 SW 5 10.00 Fair CLR 77 69.8 79% 79 30.03 0.0
03 03:55 SW 3 10.00 Fair CLR 78.8 69.8 74% 81 30.03 0.0
03 03:35 SW 5 10.00 Fair CLR 78.8 69.8 74% 81 30.03 0.0
03 03:15 SW 6 10.00 Fair CLR 78.8 69.8 74% 81 30.02 0.0
03 02:55 SW 7 10.00 Fair CLR 78.8 71.6 79% 82 30.02 0.0
03 02:35 SW 6 10.00 Fair CLR 78.8 71.6 79% 82 30.03 0.0
03 02:15 SW 6 10.00 Fair CLR 78.8 71.6 79% 82 30.03 0.0
03 01:55 SW 6 10.00 Fair CLR 78.8 71.6 79% 82 30.02 0.0
03 01:35 S 6 10.00 Fair CLR 77 73.4 89% 78 30.02 0.0
03 01:15 S 5 10.00 Fair CLR 77 73.4 89% 78 30.02 0.0
03 00:55 S 5 10.00 Fair CLR 77 73.4 89% 78 30.02 0.0
03 00:35 S 5 10.00 Fair CLR 77 73.4 89% 78 30.01 0.0
03 00:15 S 5 10.00 Fair CLR 77 73.4 89% 78 30.01 0.0
02 23:55 S 6 10.00 Fair CLR 78.8 73.4 84% 82 30.01 0.0
02 23:35 S 6 10.00 Partly Cloudy SCT070 78.8 73.4 84% 82 30.01 0.0
02 23:15 S 6 10.00 Partly Cloudy SCT070 78.8 75.2 89% 82 30.01 0.0
02 22:55 S 5 10.00 Mostly Cloudy BKN070 BKN085 80.6 75.2 84% 86 30.02 0.0
02 22:35 S 5 10.00 Partly Cloudy SCT070 80.6 75.2 84% 86 30.02 0.0
02 22:15 S 6 10.00 Partly Cloudy SCT070 SCT090 80.6 75.2 84% 86 30.02 0.0
02 21:55 S 5 10.00 Overcast BKN070 OVC090 80.6 75.2 84% 86 30.01 0.0
02 21:35 SE 5 10.00 Partly Cloudy SCT070 80.6 75.2 84% 86 30.01 0.0
02 21:15 SE 5 7.00 Fair CLR 80.6 77 89% 87 30 0.0
02 20:55 S 5 10.00 Mostly Cloudy BKN070 80.6 77 89% 87 30 0.0
02 20:35 SE 5 10.00 Mostly Cloudy BKN070 82.4 77 84% 91 30 0.0
02 20:15 S 3 10.00 Partly Cloudy SCT070 84.2 78.8 84% 96 30 0.0
02 19:55 S 3 10.00 Partly Cloudy SCT070 86 78.8 79% 99 30 0.0
02 19:35 S 5 10.00 Partly Cloudy SCT070 87.8 77 70% 100 30 0.0
02 19:15 S 3 10.00 Fair CLR 89.6 77 67% 103 30 0.0
02 18:55 S 5 10.00 Fair CLR 89.6 75.2 63% 100 30 0.0
02 18:35 S 5 10.00 Fair CLR 91.4 75.2 59% 103 30 0.0
02 18:15 SW 5 10.00 Fair CLR 91.4 75.2 59% 103 30.01 0.0
02 17:55 SW 6 10.00 Fair CLR 91.4 73.4 56% 100 30.01 0.0
02 17:35 SW 9 10.00 Fair CLR 93.2 73.4 53% 103 30.01 0.0
02 17:15 S 8 10.00 Fair CLR 93.2 75.2 56% 105 30.02 0.0
02 16:55 SW 7 10.00 Fair CLR 93.2 75.2 56% 105 30.02 0.0
02 16:35 SW 7 10.00 Fair CLR 93.2 73.4 53% 103 30.02 0.0
02 16:15 S 5 10.00 Fair CLR 93.2 75.2 56% 105 30.03 0.0
02 15:55 SW 8 10.00 Fair CLR 93.2 75.2 56% 105 30.03 0.0
02 15:35 SW 8 10.00 Fair CLR 93.2 73.4 53% 103 30.04 0.0
02 15:15 SW 9 10.00 Fair CLR 93.2 73.4 53% 103 30.04 0.0
02 14:55 SW 7 10.00 Fair CLR 93.2 75.2 56% 105 30.04 0.0
02 14:35 S 9 10.00 Fair CLR 91.4 75.2 59% 103 30.05 0.0
02 14:15 W 8 10.00 Fair CLR 91.4 75.2 59% 103 30.05 0.0
02 13:55 SW 7 10.00 Fair CLR 91.4 75.2 59% 103 30.05 0.0
02 13:35 SW 9 10.00 Fair CLR 91.4 75.2 59% 103 30.06 0.0
02 13:15 SW 10 10.00 Fair CLR 89.6 73.4 59% 98 30.06 0.0
02 12:55 SW 12 10.00 Fair CLR 89.6 73.4 59% 98 30.07 0.0
02 12:35 SW 10 10.00 Fair CLR 89.6 73.4 59% 98 30.07 0.0
02 12:15 SW 10 10.00 Fair CLR 87.8 75.2 66% 98 30.07 0.0
02 11:55 SW 12 10.00 Fair CLR 87.8 73.4 62% 96 30.07 0.0
02 11:35 SW 10 10.00 Fair CLR 87.8 73.4 62% 96 30.07 0.0
02 11:15 SW 7 10.00 Fair CLR 86 73.4 66% 93 30.07 0.0
02 10:55 SW 10 10.00 Fair CLR 84.2 73.4 70% 91 30.07 0.0
02 10:35 SW 9 10.00 Fair CLR 84.2 73.4 70% 91 30.07 0.0
02 10:15 SW 8 10.00 Fair CLR 82.4 73.4 74% 88 30.07 0.0
02 09:55 SW 7 10.00 Fair CLR 82.4 73.4 74% 88 30.08 0.0
02 09:35 SW 7 10.00 Fair CLR 80.6 73.4 79% 85 30.09 0.0
02 09:15 SW 5 10.00 Fair CLR 80.6 71.6 74% 85 30.09 0.0
02 08:55 S 6 10.00 Fair CLR 77 73.4 89% 78 30.08 0.0
02 08:35 S 6 10.00 Fair CLR 75.2 71.6 89% 75 30.08 0.0
02 08:15 S 5 10.00 Fair CLR 73.4 71.6 94% 30.09 0.0
02 07:55 S 5 10.00 Fair CLR 73.4 69.8 89% 30.08 0.0
02 07:35 S 5 10.00 Fair CLR 73.4 69.8 89% 30.08 0.0
02 07:15 SW 5 10.00 Fair CLR 75.2 69.8 83% 75 30.07 0.0
02 06:55 SW 6 10.00 Fair CLR 75.2 69.8 83% 75 30.07 0.0
02 06:35 SW 6 10.00 Fair CLR 75.2 69.8 83% 75 30.06 0.0
02 06:15 SW 5 10.00 Fair CLR 73.4 69.8 89% 30.06 0.0
02 05:55 SW 5 10.00 Fair CLR 75.2 69.8 83% 75 30.06 0.0
02 05:35 SW 5 10.00 Fair CLR 75.2 69.8 83% 75 30.05 0.0
02 05:15 SW 6 10.00 Fair CLR 73.4 69.8 89% 30.05 0.0
02 04:55 SW 6 10.00 Fair CLR 75.2 69.8 83% 75 30.05 0.0
02 04:35 SW 6 10.00 Fair CLR 77 69.8 79% 79 30.05 0.0
02 04:15 SW 6 10.00 Fair CLR 77 69.8 79% 79 30.05 0.0
02 03:55 SW 6 10.00 Fair CLR 77 69.8 79% 79 30.05 0.0
02 03:35 SW 6 10.00 Fair CLR 77 69.8 79% 79 30.05 0.0
02 03:15 SW 6 10.00 Fair CLR 77 71.6 83% 78 30.05 0.0
02 02:55 SW 6 10.00 Fair CLR 77 71.6 83% 78 30.05 0.0
Date Time (edt) Wind (mph) Vis. (mi.) Weather Sky Cond. Air Dwpt Max. Min. Relative Humidity Wind Chill (°F) Heat Index (°F) altimeter (in) sea level (mb) 1 hr 3 hr 6 hr
6 hour
Temperature (ºF) Pressure Precipitation (in)